Aérodrome :
LOGIN :

S'inscrire | Disclaimer

   EN    FR    IT 

 










Légende :    VFR   VFR Marginal   IFR   IFR Intensif   IFR Très Intensif
Visi : 
Plafond : 
>= 8 km
>= 3000ft
5 à 8 km
1000 à 3000 ft
1500m à 5 km
500 à 1000 ft
800 à 1500m
200 à 500 ft
< 800m
< 200 ft
Symboles :   Orages  Brouillard  Fortes neiges  Fortes précipitations  Vent > 20 kt
SIGMETs :   Divers  Orages  Givrage  Turbulence  Onde Orograph.  Cendres Volcan.






- Altitude de l'aérodrome : 42 ft
- Code IATA : CAL


EGEC - Campbeltown

DERNIER METAR :
  • 150820Z 11015KT CAVOK 10/08 Q1001

METARs EXPIRÉS :
  • 150750Z 11015KT 9999 FEW014 09/07 Q1001
  • 150720Z 11012KT 9999 FEW014 09/07 Q1001
  • 150650Z 10012KT 9999 FEW014 09/07 Q1001

TAF TAF EGEC
Valide du 15 à 09h jusqu'au 15 à 18h UTC


150758Z 1509/1518 12013KT 9999 FEW015 SCT030
PROB40
TEMPO 1513/1518 BKN012
PROB30
TEMPO 1515/1518 7000 -RADZ



MET'MAP, la Météo Aéronautique d'un coup d'oeil ! - Copyright ORBIFLY Décembre 2007 - Disclaimer

ORBIFLY MET'MAP TEAM :

Programmation & Développement : Alexandra Zaïnal
Conception & Développement : Baudouin d'Aumeries
Co-Programmation & Développement : Marc-Olivier Méhu
Soutien technique & logistique : Manuel Goepfert

Contact : metmap@orbifly.com




SOURCES & CREDITS :

   NOAA